createdAt,value
2018-03-20T00:35:57.424Z,57.70
2018-03-20T00:38:50.179Z,57.60
2018-03-20T00:41:49.790Z,58.80
2018-03-20T00:44:42.844Z,58.80
2018-03-20T00:47:28.394Z,59.40
2018-03-20T00:50:18.225Z,59.40
2018-03-20T00:53:09.449Z,59.60
2018-03-20T00:56:32.630Z,60.50
2018-03-20T00:59:19.112Z,60.50
2018-03-20T01:02:10.185Z,60.50
2018-03-20T01:08:35.645Z,62.00
2018-03-20T01:17:33.368Z,63.60
2018-03-20T01:20:18.262Z,64.30
2018-03-20T01:23:01.471Z,64.30
2018-03-20T01:25:50.849Z,66.40
2018-03-20T01:28:38.544Z,66.80
2018-03-20T01:31:21.067Z,66.70
2018-03-20T01:34:05.220Z,67.10
2018-03-20T01:36:47.956Z,69.50
2018-03-20T01:42:34.603Z,69.80
2018-03-20T01:45:27.330Z,69.80
2018-03-20T01:48:12.298Z,71.10
2018-03-20T01:54:33.569Z,72.10
2018-03-20T01:57:21.716Z,72.40
2018-03-20T02:00:01.076Z,74.50
2018-03-20T02:02:50.942Z,75.20
2018-03-20T02:05:39.689Z,74.40
2018-03-20T02:08:31.399Z,74.10
2018-03-20T02:11:24.037Z,74.40
2018-03-20T02:17:13.706Z,75.80
2018-03-20T02:20:11.563Z,75.80
2018-03-20T02:22:57.198Z,74.80
2018-03-20T02:25:59.817Z,75.30
2018-03-20T02:28:41.147Z,74.50
2018-03-20T02:31:26.790Z,74.50
2018-03-20T02:34:15.997Z,73.50
2018-03-20T02:39:58.350Z,74.20
2018-03-20T02:42:40.757Z,74.70
2018-03-20T02:45:28.020Z,75.00
2018-03-20T02:51:29.251Z,78.10
2018-03-20T02:54:30.038Z,78.10
2018-03-20T02:57:14.011Z,79.80
2018-03-20T03:00:07.313Z,80.00
2018-03-20T03:03:26.357Z,79.00
2018-03-20T03:10:01.070Z,77.70
2018-03-20T03:15:34.603Z,81.80
2018-03-20T03:18:23.725Z,86.50
2018-03-20T03:21:07.492Z,86.40
2018-03-20T03:23:55.793Z,88.20
2018-03-20T03:26:42.376Z,88.90
2018-03-20T03:29:31.907Z,89.40
2018-03-20T03:32:18.127Z,90.00
2018-03-20T03:35:10.278Z,90.60
2018-03-20T03:41:17.361Z,92.30
2018-03-20T03:44:12.465Z,92.90
2018-03-20T03:50:05.809Z,93.60
2018-03-20T03:52:59.313Z,93.70
2018-03-20T03:56:01.028Z,93.50
2018-03-20T03:58:53.527Z,93.50
2018-03-20T04:04:39.805Z,95.00
2018-03-20T04:07:24.816Z,95.60
2018-03-20T04:10:16.208Z,96.90
2018-03-20T04:13:10.838Z,96.90
2018-03-20T04:16:00.167Z,96.90
2018-03-20T04:18:56.648Z,96.90
2018-03-20T04:28:09.309Z,96.70
2018-03-20T04:31:21.112Z,96.70
2018-03-20T04:35:28.450Z,96.80
2018-03-20T04:38:16.450Z,97.10
2018-03-20T04:41:20.969Z,97.30
2018-03-20T04:44:04.783Z,97.10
2018-03-20T04:46:52.953Z,97.20
2018-03-20T04:49:38.066Z,97.40
2018-03-20T04:52:40.015Z,97.30
2018-03-20T04:55:31.208Z,97.40
2018-03-20T04:58:24.412Z,97.80
2018-03-20T05:01:28.390Z,97.60
2018-03-20T05:04:16.546Z,97.60
2018-03-20T05:07:04.530Z,97.20
2018-03-20T05:10:05.885Z,97.10
2018-03-20T05:12:54.344Z,98.50
2018-03-20T05:15:37.851Z,98.60
2018-03-20T05:18:18.423Z,98.60
2018-03-20T05:21:05.318Z,98.70
2018-03-20T05:25:14.769Z,98.70
2018-03-20T05:28:34.350Z,99.20
2018-03-20T05:31:54.411Z,99.40
2018-03-20T05:34:44.785Z,99.70
2018-03-20T05:46:28.169Z,99.10
